• Join FlightAware (Why Join?)
  • Login
  • US Flag 
03:00AM EDT


 

Airport Tracker/Info


-or-


 

Live Flight TrackerFlight Track Log ✈ N762NC ✈ 22-Aug-2013 ✈ KBNA - KATL

Flight Track Log - Related Links

Times and Time Zones

All times are in EDT time to prevent confusion due to time zone crossing. See the N762NC flight status page for this flight to view local times or setup timezone preferences in your user account.

Time Position Orientation Groundspeed Altitude Reporting Facility
EDT Latitude Longitude Course Direction KTS MPH feet Rate Location/Type
10:11AM 35.9761 -86.5390 149° Southeast  Level Estimated
10:12AM 35.9266 -86.4927 145° Southeast  Level Estimated
10:13AM 35.8716 -86.4571 152° Southeast  Level FlightAware Approximate
10:14AM 35.8166 -86.4215 152° Southeast  Level FlightAware Approximate
10:15AM 35.7674 -86.3749 152° Southeast  Level Estimated
10:16AM 35.7181 -86.3284 136° Southeast  Level Estimated
10:17AM 35.6681 -86.2831 144° Southeast  Level FlightAware Approximate
10:18AM 35.6188 -86.2366 136° Southeast  Level Estimated
10:19AM 35.5710 -86.1880 140° Southeast  Level FlightAware Approximate
10:20AM 35.5180 -86.1346 141° Southeast  Level FlightAware Approximate
10:21AM 35.4698 -86.0865 141° Southeast  Level FlightAware Approximate
10:22AM 35.4172 -86.0462 149° Southeast  Level FlightAware Approximate
10:23AM 35.3645 -86.0060 148° Southeast  Level FlightAware Approximate
10:24AM 35.3119 -85.9655 148° Southeast  Level FlightAware Approximate
10:25AM 35.2593 -85.9251 148° Southeast  Level FlightAware Approximate
10:26AM 35.2067 -85.8847 148° Southeast  Level FlightAware Approximate
10:27AM 35.1541 -85.8444 148° Southeast  Level FlightAware Approximate
10:28AM 35.1014 -85.8041 148° Southeast  Level FlightAware Approximate
10:29AM 35.0488 -85.7639 148° Southeast  Level FlightAware Approximate
10:30AM 34.9961 -85.7238 148° Southeast  Level FlightAware Approximate
10:31AM 34.9435 -85.6837 148° Southeast  Level FlightAware Approximate
10:32AM 34.8908 -85.6436 148° Southeast  Level FlightAware Approximate
10:33AM 34.8381 -85.6036 148° Southeast  Level FlightAware Approximate
10:34AM 34.7825 -85.5751 149° Southeast  Level FlightAware Approximate
10:35AM 34.7292 -85.5363 149° Southeast  Level FlightAware Approximate
10:36AM 34.6759 -85.4976 149° Southeast  Level FlightAware Approximate
10:37AM 34.6226 -85.4589 149° Southeast  Level FlightAware Approximate
10:38AM 34.5693 -85.4203 149° Southeast  Level FlightAware Approximate
10:39AM 34.5160 -85.3817 149° Southeast  Level FlightAware Approximate
10:40AM 34.4806 -85.3562 149° Southeast  Level FlightAware Approximate
10:41AM 34.4453 -85.3307 149° Southeast  Level FlightAware Approximate
10:42AM 34.4100 -85.3052 149° Southeast  Level FlightAware Approximate
10:43AM 34.3746 -85.2797 149° Southeast  Level FlightAware Approximate
10:44AM 34.3393 -85.2543 149° Southeast  Level FlightAware Approximate
10:45AM 34.3042 -85.2282 148° Southeast  Level FlightAware Approximate
10:46AM 34.2693 -85.2020 148° Southeast  Level FlightAware Approximate
10:47AM 34.2339 -85.1766 149° Southeast  Level FlightAware Approximate
10:47AM 36.1167 -86.6833 133° Southeast 154 177 1,400  Level Nashville TRACON
10:48AM 34.1985 -85.1513 149° Southeast  Level FlightAware Approximate
10:48AM 36.0500 -86.6833 180° South 224 258 2,800  Level Nashville TRACON
10:49AM 34.1275 -85.0902 126° Southeast  Level FlightAware Approximate
10:49AM 36.0000 -86.6667 165° South 240 276 4,600  Level Nashville TRACON
10:50AM 34.0746 -85.0055 133° Southeast  Level FlightAware Approximate
10:50AM 35.8842 -86.6522 174° South 293 337 8,000  Level Memphis Center
10:51AM 34.0145 -84.9280 133° Southeast  Level FlightAware Approximate
10:51AM 35.8078 -86.6097 156° South 288 331 10,300  Level Memphis Center
10:52AM 33.9544 -84.8506 133° Southeast  Level FlightAware Approximate
10:52AM 35.7211 -86.5700 160° South 305 351 11,600  Level Memphis Center
10:53AM 35.6258 -86.5233 158° South 351 404 13,500 1,800 Climbing Memphis Center
10:54AM 35.5431 -86.4711 153° Southeast 362 417 15,200 1,620 Climbing Memphis Center
10:55AM 35.4211 -86.3528 142° Southeast 390 449 17,400 1,560 Climbing Atlanta Center
10:56AM 35.3392 -86.2742 142° Southeast 412 474 18,900 1,500 Climbing Atlanta Center
10:57AM 35.2511 -86.1853 140° Southeast 418 481 20,500 1,560 Climbing Atlanta Center
10:58AM 35.1628 -86.0992 141° Southeast 418 481 22,100 1,680 Climbing Atlanta Center
10:59AM 35.0744 -86.0108 141° Southeast 412 474 23,900 900 Climbing Atlanta Center
11:00AM 34.9842 -85.9225 141° Southeast 417 480 24,000  Climbing Atlanta Center
11:01AM 34.9039 -85.8369 139° Southeast 417 480 24,000  Level Atlanta Center
11:02AM 34.8031 -85.7436 143° Southeast 417 480 24,000  Level Atlanta Center
11:03AM 34.7103 -85.6558 142° Southeast 417 480 24,000  Level Atlanta Center
11:04AM 34.6217 -85.5683 141° Southeast 417 480 24,000  Level Atlanta Center
11:05AM 34.5331 -85.4761 139° Southeast 417 480 24,000 -1,080 Level Atlanta Center
11:06AM 34.4442 -85.3939 143° Southeast 412 474 21,900 -2,220 Descending Atlanta Center
11:07AM 34.3575 -85.3119 142° Southeast 412 474 19,600 -2,220 Descending Atlanta Center
11:08AM 34.2769 -85.2328 141° Southeast 402 463 17,500 -2,100 Descending Atlanta Center
11:09AM 34.1961 -85.1564 142° Southeast 384 442 15,400 -1,800 Descending Atlanta Center
11:10AM 34.1258 -85.0753 136° Southeast 368 423 14,000 -660 Descending Atlanta Center
11:11AM 34.0597 -84.9892 133° Southeast 356 410 14,100 -180 Climbing Atlanta Center
11:12AM 33.9958 -84.8983 130° Southeast 351 404 13,700 -1,320 Descending Atlanta Center
11:13AM 33.9339 -84.8125 131° Southeast 345 397 11,500 -1,380 Descending Atlanta Center
11:14AM 33.8717 -84.7344 134° Southeast 340 391 11,000 -360 Descending Atlanta Center
11:15AM 33.8333 -84.6833 132° Southeast 272 313 11,000  Level Atlanta TRACON
11:16AM 33.7833 -84.6333 140° Southeast 250 288 11,000  Level Atlanta TRACON
11:17AM 33.7333 -84.5667 132° Southeast 256 295 11,100 -600 Climbing Atlanta TRACON
11:18AM 33.7333 -84.4833 90° East 256 295 9,900 -1,320 Descending Atlanta TRACON
11:19AM 33.7333 -84.4000 90° East 257 296 8,500 -1,620 Descending Atlanta TRACON
11:20AM 33.7333 -84.3167 90° East 239 275 6,700 -1,800 Descending Atlanta TRACON
11:21AM 33.7167 -84.2500 107° East 237 273 5,000 -1,560 Descending Atlanta TRACON
11:22AM 33.6667 -84.2500 180° South 213 245 3,600 -1,200 Descending Atlanta TRACON
11:23AM 33.6500 -84.3000 248° West 162 186 2,600 -960 Descending Atlanta TRACON
11:24AM 33.6500 -84.3667 270° West 150 173 1,700 -840 Descending Atlanta TRACON
11:25AM 33.6500 -84.4000 270° West 144 166 1,100 -720 Descending Atlanta TRACON